Terminal Aerodrome Forecast
Issued by NWS

Home | Current Version | Previous Version | Text Only | Print | Product List | Glossary On
Versions: 1 2 3 4 5 6 7 8 9 10 11 12
715
FTUS46 KSTO 182328
TAFMHR
TAF
KMHR 182328Z 1900/1924 22006KT P6SM SKC
     FM190500 15006KT P6SM SKC
     FM191000 15006KT P6SM OVC010
     FM191700 17007KT P6SM FEW010 BKN050=

USA.gov is the U.S. government's official web portal to all federal, state and local government web resources and services.